Aviation Digital Data Service (ADDS)

Output produced by METARs form (0046 UTC 18 November 2017)
found at http://aviationweather.gov/adds/metars/
 
KLAX 172343Z 1800/1906 26012KT P6SM FEW010 FEW060 
     FM180200 27008KT P6SM FEW010 
     FM180600 03005KT P6SM SCT010 
     FM181600 27005KT P6SM SCT250 
     FM182000 27010KT P6SM SCT250 
     FM190300 26005KT P6SM SCT250